createdAt,value
2022-09-07T00:01:50.173Z,99581.72
2022-09-07T00:04:16.890Z,99591.88
2022-09-07T00:06:43.657Z,99589.66
2022-09-07T00:09:10.317Z,99598.31
2022-09-07T00:11:37.021Z,99589.81
2022-09-07T00:14:06.072Z,99585.16
2022-09-07T00:16:32.749Z,99592.25
2022-09-07T00:19:01.419Z,99601.25
2022-09-07T00:21:29.340Z,99616.66
2022-09-07T00:23:58.580Z,99633.25
2022-09-07T00:26:27.163Z,99637.59
2022-09-07T00:28:57.584Z,99636.03
2022-09-07T00:31:27.018Z,99629.81
2022-09-07T00:33:54.569Z,99609.75
2022-09-07T00:36:22.870Z,99626.69
2022-09-07T00:38:50.133Z,99622.53
2022-09-07T00:41:19.983Z,99617.00
2022-09-07T00:43:48.627Z,99613.34
2022-09-07T00:46:17.704Z,99613.19
2022-09-07T00:48:52.095Z,99603.84
2022-09-07T00:51:24.644Z,99584.81
2022-09-07T00:53:58.151Z,99569.75
2022-09-07T00:56:29.006Z,99568.41
2022-09-07T00:58:56.315Z,99539.00
2022-09-07T01:01:23.057Z,99541.25
2022-09-07T01:03:54.567Z,99511.47
2022-09-07T01:06:24.801Z,99507.53
2022-09-07T01:08:51.839Z,99498.69
2022-09-07T01:11:20.861Z,99482.28
2022-09-07T01:13:50.008Z,99479.31
2022-09-07T01:16:29.755Z,99480.88
2022-09-07T01:19:19.597Z,99484.69
2022-09-07T01:22:00.388Z,99483.81
2022-09-07T01:24:56.208Z,99472.41
2022-09-07T01:27:50.478Z,99485.91
2022-09-07T01:30:18.986Z,99486.13
2022-09-07T01:33:11.941Z,99474.16
2022-09-07T01:35:46.893Z,99460.69
2022-09-07T01:38:21.580Z,99445.47
2022-09-07T01:40:57.425Z,99451.00
2022-09-07T01:43:34.181Z,99442.88
2022-09-07T01:46:07.142Z,99442.88
2022-09-07T01:48:37.879Z,99434.59
2022-09-07T01:51:05.249Z,99442.34
2022-09-07T01:53:36.858Z,99418.50
2022-09-07T01:56:06.937Z,99437.34
2022-09-07T01:58:39.508Z,99432.16
2022-09-07T02:01:10.052Z,99439.06
2022-09-07T02:03:42.388Z,99436.66
2022-09-07T02:06:16.939Z,99443.91
2022-09-07T02:08:49.428Z,99425.75
2022-09-07T02:11:20.068Z,99434.91
2022-09-07T02:13:54.439Z,99418.31
2022-09-07T02:16:26.665Z,99419.03
2022-09-07T02:18:56.494Z,99411.25
2022-09-07T02:21:34.120Z,99401.75
2022-09-07T02:24:05.656Z,99385.88
2022-09-07T02:26:45.747Z,99399.84
2022-09-07T02:29:17.340Z,99415.22
2022-09-07T02:31:44.201Z,99401.22
2022-09-07T02:34:11.655Z,99404.69
2022-09-07T02:36:44.662Z,99405.88
2022-09-07T02:39:11.760Z,99396.75
2022-09-07T02:41:40.724Z,99391.91
2022-09-07T02:44:11.964Z,99402.44
2022-09-07T02:46:56.412Z,99389.28
2022-09-07T02:49:38.423Z,99391.75
2022-09-07T02:52:12.544Z,99387.94
2022-09-07T02:54:53.511Z,99392.59
2022-09-07T02:57:31.785Z,99383.63
2022-09-07T03:00:06.411Z,99385.53
2022-09-07T03:02:43.581Z,99387.38
2022-09-07T03:05:16.477Z,99372.38
2022-09-07T03:07:47.944Z,99379.41
2022-09-07T03:10:15.944Z,99381.16
2022-09-07T03:12:45.519Z,99375.59
2022-09-07T03:15:14.145Z,99382.84
2022-09-07T03:17:45.596Z,99378.84
2022-09-07T03:20:13.072Z,99375.22
2022-09-07T03:22:40.133Z,99380.03
2022-09-07T03:25:07.964Z,99374.03
2022-09-07T03:27:34.875Z,99385.56
2022-09-07T03:30:01.876Z,99387.28
2022-09-07T03:32:30.354Z,99390.91
2022-09-07T03:34:58.445Z,99393.84
2022-09-07T03:37:25.340Z,99391.25
2022-09-07T03:39:52.031Z,99394.38
2022-09-07T03:42:19.194Z,99392.44
2022-09-07T03:44:46.279Z,99392.63
2022-09-07T03:47:12.912Z,99388.97
2022-09-07T03:49:39.555Z,99384.31
2022-09-07T03:52:07.905Z,99394.16
2022-09-07T03:54:37.800Z,99387.91
2022-09-07T03:57:06.849Z,99392.03
2022-09-07T03:59:33.949Z,99387.38
2022-09-07T04:02:00.900Z,99386.50
2022-09-07T04:04:27.938Z,99390.28
2022-09-07T04:06:54.849Z,99387.19
2022-09-07T04:09:24.523Z,99392.72
2022-09-07T04:11:51.276Z,99384.75
2022-09-07T04:14:18.267Z,99395.09
2022-09-07T04:16:45.308Z,99376.53
2022-09-07T04:19:11.908Z,99395.50
2022-09-07T04:21:38.704Z,99388.31
2022-09-07T04:24:05.784Z,99377.94
2022-09-07T04:26:34.945Z,99389.13
2022-09-07T04:29:01.918Z,99377.56
2022-09-07T04:31:29.892Z,99384.97
2022-09-07T04:33:56.680Z,99380.28
2022-09-07T04:36:23.545Z,99383.56
2022-09-07T04:38:55.162Z,99384.22
2022-09-07T04:41:22.944Z,99387.69
2022-09-07T04:43:55.763Z,99378.34
2022-09-07T04:46:25.688Z,99373.91
2022-09-07T04:48:54.483Z,99377.31
2022-09-07T04:51:23.020Z,99376.47
2022-09-07T04:53:51.279Z,99373.69
2022-09-07T04:56:19.286Z,99372.78
2022-09-07T04:58:47.287Z,99381.84
2022-09-07T05:01:19.747Z,99380.47
2022-09-07T05:03:47.071Z,99372.06
2022-09-07T05:06:14.780Z,99378.44
2022-09-07T05:08:43.880Z,99387.47
2022-09-07T05:11:12.262Z,99389.06
2022-09-07T05:13:39.821Z,99382.34
2022-09-07T05:16:13.428Z,99381.53
2022-09-07T05:18:42.691Z,99379.06
2022-09-07T05:21:11.784Z,99376.00
2022-09-07T05:23:39.052Z,99381.00
2022-09-07T05:26:06.277Z,99395.16
2022-09-07T05:28:33.447Z,99390.34
2022-09-07T05:31:21.708Z,99387.41
2022-09-07T05:36:38.735Z,99381.59
2022-09-07T05:39:07.183Z,99381.81
2022-09-07T05:41:35.033Z,99386.31
2022-09-07T05:46:48.892Z,99389.75
2022-09-07T05:49:16.889Z,99391.31
2022-09-07T05:51:43.906Z,99388.28
2022-09-07T05:54:11.084Z,99390.88
2022-09-07T05:56:39.859Z,99392.94
2022-09-07T05:59:06.778Z,99396.00
2022-09-07T06:01:33.449Z,99385.94
2022-09-07T06:04:00.545Z,99391.97
2022-09-07T06:06:28.778Z,99390.28
2022-09-07T06:08:55.461Z,99389.38
2022-09-07T06:11:23.916Z,99389.56
2022-09-07T06:13:51.646Z,99392.75
2022-09-07T06:16:33.089Z,99397.41
2022-09-07T06:19:04.593Z,99402.41
2022-09-07T06:21:35.714Z,99402.16
2022-09-07T06:24:03.639Z,99397.16
2022-09-07T06:26:32.523Z,99410.41
2022-09-07T06:28:59.350Z,99409.50
2022-09-07T06:31:26.367Z,99413.09
2022-09-07T06:33:55.668Z,99427.47
2022-09-07T06:36:24.230Z,99419.81
2022-09-07T06:38:52.655Z,99417.81
2022-09-07T06:44:10.444Z,99412.25
2022-09-07T06:49:34.023Z,99425.56
2022-09-07T06:52:00.912Z,99421.19
2022-09-07T06:57:16.026Z,99429.69
2022-09-07T06:59:42.961Z,99427.88
2022-09-07T07:02:12.030Z,99440.59
2022-09-07T07:04:41.094Z,99438.63
2022-09-07T07:07:10.792Z,99443.03
2022-09-07T07:09:39.072Z,99462.91
2022-09-07T07:12:06.804Z,99458.16
2022-09-07T07:14:35.539Z,99448.41
2022-09-07T07:17:03.066Z,99458.38
2022-09-07T07:19:29.800Z,99457.50
2022-09-07T07:24:44.786Z,99457.38
2022-09-07T07:27:11.495Z,99467.63
2022-09-07T07:29:38.376Z,99462.31
2022-09-07T07:32:05.207Z,99464.03
2022-09-07T07:34:31.946Z,99467.75
2022-09-07T07:36:58.726Z,99469.06
2022-09-07T07:42:31.336Z,99484.38
2022-09-07T07:47:49.025Z,99488.31
2022-09-07T07:50:32.086Z,99488.44
2022-09-07T07:55:46.870Z,99490.50
2022-09-07T07:58:15.135Z,99488.56
2022-09-07T08:00:54.231Z,99480.38
2022-09-07T08:03:22.937Z,99479.41
2022-09-07T08:05:49.549Z,99487.00
2022-09-07T08:08:16.197Z,99503.63
2022-09-07T08:10:45.749Z,99497.66
2022-09-07T08:13:14.461Z,99491.22
2022-09-07T08:15:42.135Z,99493.22
2022-09-07T08:18:09.888Z,99480.78
2022-09-07T08:20:37.899Z,99469.03
2022-09-07T08:23:05.153Z,99474.50
2022-09-07T08:25:31.664Z,99476.63
2022-09-07T08:27:58.341Z,99469.00
2022-09-07T08:30:26.421Z,99470.47
2022-09-07T08:32:53.093Z,99468.78
2022-09-07T08:35:19.659Z,99456.78
2022-09-07T08:37:46.412Z,99469.03
2022-09-07T08:40:16.428Z,99468.34
2022-09-07T08:42:56.993Z,99479.09
2022-09-07T08:45:34.482Z,99476.91
2022-09-07T08:48:04.938Z,99474.59
2022-09-07T08:50:38.124Z,99491.47
2022-09-07T08:53:12.410Z,99491.25
2022-09-07T08:55:41.755Z,99490.78
2022-09-07T08:58:32.288Z,99496.72
2022-09-07T09:06:47.879Z,99501.47
2022-09-07T09:09:24.195Z,99496.19
2022-09-07T09:12:00.405Z,99496.47
2022-09-07T09:14:33.664Z,99501.97
2022-09-07T09:17:11.130Z,99496.88
2022-09-07T09:19:54.684Z,99484.09
2022-09-07T09:22:25.083Z,99495.13
2022-09-07T09:24:58.625Z,99498.31
2022-09-07T09:27:25.240Z,99492.84
2022-09-07T09:29:51.836Z,99493.44
2022-09-07T09:32:35.491Z,99488.53
2022-09-07T09:35:11.892Z,99492.56
2022-09-07T09:37:40.346Z,99502.59
2022-09-07T09:40:21.233Z,99501.63
2022-09-07T09:43:02.502Z,99512.63
2022-09-07T09:46:12.263Z,99504.47
2022-09-07T09:48:29.111Z,99510.81
2022-09-07T09:53:54.732Z,99509.78
2022-09-07T09:56:21.685Z,99506.91
2022-09-07T10:01:36.369Z,99506.59
2022-09-07T10:04:20.291Z,99509.72
2022-09-07T10:06:50.717Z,99513.09
2022-09-07T10:09:21.584Z,99521.84
2022-09-07T10:12:08.686Z,99518.84
2022-09-07T10:14:42.395Z,99520.06
2022-09-07T10:17:13.977Z,99511.81
2022-09-07T10:19:44.260Z,99516.63
2022-09-07T10:22:24.569Z,99517.38
2022-09-07T10:24:51.625Z,99518.09
2022-09-07T10:27:29.957Z,99522.13
2022-09-07T10:29:57.060Z,99516.94
2022-09-07T10:32:37.761Z,99525.16
2022-09-07T10:35:21.099Z,99521.06
2022-09-07T10:37:57.886Z,99525.41
2022-09-07T10:40:33.860Z,99516.84
2022-09-07T10:43:26.545Z,99519.09
2022-09-07T10:46:14.291Z,99526.53
2022-09-07T10:48:55.680Z,99520.38
2022-09-07T10:51:33.775Z,99526.75
2022-09-07T10:57:08.302Z,99517.78
2022-09-07T11:06:05.925Z,99504.63
2022-09-07T11:14:25.551Z,99493.94
2022-09-07T11:16:56.806Z,99499.22
2022-09-07T11:19:37.434Z,99498.53
2022-09-07T11:22:14.292Z,99497.13
2022-09-07T11:25:29.034Z,99494.28
2022-09-07T11:27:42.100Z,99484.72
2022-09-07T11:30:18.576Z,99484.13
2022-09-07T11:32:54.289Z,99483.50
2022-09-07T11:35:30.230Z,99492.03
2022-09-07T11:38:00.758Z,99483.84
2022-09-07T11:40:31.463Z,99482.09
2022-09-07T11:43:03.082Z,99482.13
2022-09-07T11:45:36.035Z,99483.25
2022-09-07T11:48:10.813Z,99474.44
2022-09-07T11:50:44.905Z,99476.81
2022-09-07T11:53:18.115Z,99476.53
2022-09-07T11:55:50.689Z,99468.28
2022-09-07T11:58:34.186Z,99473.34
2022-09-07T12:01:11.890Z,99480.72
2022-09-07T12:04:12.079Z,99469.16
2022-09-07T12:07:14.992Z,99473.78
2022-09-07T12:10:01.718Z,99465.19
2022-09-07T12:12:49.460Z,99447.31
2022-09-07T12:15:26.711Z,99454.50
2022-09-07T12:18:06.731Z,99458.66
2022-09-07T12:20:40.345Z,99460.41
2022-09-07T12:23:21.841Z,99452.50
2022-09-07T12:25:50.032Z,99449.03
2022-09-07T12:29:03.956Z,99454.88
2022-09-07T12:32:52.581Z,99458.69
2022-09-07T12:34:59.071Z,99452.03
2022-09-07T12:37:41.393Z,99452.59
2022-09-07T12:40:57.101Z,99453.72
2022-09-07T12:43:44.839Z,99450.53
2022-09-07T12:46:23.786Z,99449.63
2022-09-07T12:49:00.979Z,99450.53
2022-09-07T12:54:33.893Z,99457.03
2022-09-07T12:57:30.640Z,99455.28
2022-09-07T13:00:14.750Z,99447.78
2022-09-07T13:06:19.133Z,99436.38
2022-09-07T13:09:10.698Z,99431.72
2022-09-07T13:11:39.267Z,99433.34
2022-09-07T13:14:24.816Z,99435.84
2022-09-07T13:17:26.593Z,99435.03
2022-09-07T13:20:23.315Z,99430.84
2022-09-07T13:22:57.547Z,99438.09
2022-09-07T13:25:45.345Z,99419.22
2022-09-07T13:28:21.435Z,99423.28
2022-09-07T13:30:59.644Z,99416.66
2022-09-07T13:33:46.946Z,99429.81
2022-09-07T13:36:24.776Z,99415.31
2022-09-07T13:38:58.738Z,99418.97
2022-09-07T13:41:31.514Z,99413.59
2022-09-07T13:44:00.655Z,99409.69
2022-09-07T13:46:57.535Z,99411.38
2022-09-07T13:49:56.358Z,99414.81
2022-09-07T13:52:35.200Z,99418.56
2022-09-07T13:55:28.843Z,99411.22
2022-09-07T13:58:11.411Z,99408.22
2022-09-07T14:01:02.329Z,99410.41
2022-09-07T14:03:44.795Z,99396.88
2022-09-07T14:06:28.410Z,99391.56
2022-09-07T14:09:02.647Z,99386.94
2022-09-07T14:11:43.974Z,99386.28
2022-09-07T14:14:17.861Z,99383.00
2022-09-07T14:16:47.364Z,99381.25
2022-09-07T14:19:20.494Z,99383.72
2022-09-07T14:21:58.928Z,99388.25
2022-09-07T14:24:30.961Z,99385.94
2022-09-07T14:26:59.593Z,99387.81
2022-09-07T14:29:31.049Z,99386.13
2022-09-07T14:32:03.275Z,99382.81
2022-09-07T14:34:34.225Z,99376.69
2022-09-07T14:37:07.023Z,99373.16
2022-09-07T14:39:38.361Z,99374.91
2022-09-07T14:42:07.762Z,99373.47
2022-09-07T14:44:38.939Z,99378.44
2022-09-07T14:47:24.464Z,99379.00
2022-09-07T14:49:52.396Z,99380.47
2022-09-07T14:52:26.174Z,99378.41
2022-09-07T14:54:53.805Z,99381.72
2022-09-07T14:57:30.556Z,99375.72
2022-09-07T14:59:58.246Z,99364.19
2022-09-07T15:02:36.366Z,99376.72
2022-09-07T15:05:27.888Z,99370.69
2022-09-07T15:07:58.462Z,99359.38
2022-09-07T15:10:39.782Z,99366.56
2022-09-07T15:13:29.228Z,99359.97
2022-09-07T15:16:20.280Z,99362.66
2022-09-07T15:18:53.587Z,99362.66
2022-09-07T15:21:21.214Z,99367.28
2022-09-07T15:23:52.487Z,99367.25
2022-09-07T15:29:11.056Z,99364.00
2022-09-07T15:31:41.715Z,99354.94
2022-09-07T15:34:11.588Z,99363.09
2022-09-07T15:36:40.743Z,99357.28
2022-09-07T15:39:14.321Z,99352.28
2022-09-07T15:41:40.868Z,99360.72
2022-09-07T15:44:14.529Z,99353.63
2022-09-07T15:47:42.082Z,99350.66
2022-09-07T15:49:32.507Z,99342.97
2022-09-07T15:52:07.000Z,99340.59
2022-09-07T15:54:37.154Z,99344.84
2022-09-07T15:59:55.094Z,99332.06
2022-09-07T16:05:10.479Z,99335.31
2022-09-07T16:10:24.028Z,99326.53
2022-09-07T16:15:45.805Z,99316.69
2022-09-07T16:18:16.584Z,99324.41
2022-09-07T16:20:44.167Z,99327.28
2022-09-07T16:23:15.295Z,99324.06
2022-09-07T16:25:54.990Z,99313.22
2022-09-07T16:28:23.236Z,99317.59
2022-09-07T16:30:51.572Z,99316.34
2022-09-07T16:33:18.190Z,99316.53
2022-09-07T16:35:59.157Z,99310.09
2022-09-07T16:41:14.503Z,99322.78
2022-09-07T16:43:41.379Z,99324.63
2022-09-07T16:46:12.710Z,99322.47
2022-09-07T16:48:39.966Z,99310.22
2022-09-07T16:51:06.994Z,99312.75
2022-09-07T16:53:35.800Z,99298.84
2022-09-07T16:56:03.674Z,99297.78
2022-09-07T16:58:38.489Z,99303.78
2022-09-07T17:01:07.019Z,99311.03
2022-09-07T17:03:36.163Z,99311.31
2022-09-07T17:06:05.212Z,99313.25
2022-09-07T17:08:33.161Z,99316.06
2022-09-07T17:11:15.935Z,99306.81
2022-09-07T17:13:43.445Z,99305.72
2022-09-07T17:16:11.737Z,99317.84
2022-09-07T17:21:31.261Z,99314.97
2022-09-07T17:23:59.931Z,99321.00
2022-09-07T17:26:27.329Z,99323.38
2022-09-07T17:28:59.677Z,99314.84
2022-09-07T17:34:17.016Z,99306.28
2022-09-07T17:36:43.583Z,99308.44
2022-09-07T17:39:14.992Z,99312.38
2022-09-07T17:41:43.237Z,99303.38
2022-09-07T17:44:10.014Z,99310.63
2022-09-07T17:46:36.800Z,99312.59
2022-09-07T17:49:03.801Z,99309.78
2022-09-07T17:51:32.656Z,99310.44
2022-09-07T17:54:01.540Z,99300.16
2022-09-07T17:56:28.731Z,99301.81
2022-09-07T18:00:10.639Z,99306.69
2022-09-07T18:01:42.718Z,99298.53
2022-09-07T18:04:10.099Z,99297.84
2022-09-07T18:06:38.063Z,99302.53
2022-09-07T18:09:05.675Z,99302.22
2022-09-07T18:11:49.015Z,99285.66
2022-09-07T18:14:17.813Z,99296.28
2022-09-07T18:16:49.334Z,99295.81
2022-09-07T18:19:19.414Z,99293.47
2022-09-07T18:21:54.247Z,99293.47
2022-09-07T18:24:23.326Z,99295.25
2022-09-07T18:26:52.747Z,99293.91
2022-09-07T18:29:28.810Z,99287.03
2022-09-07T18:31:58.176Z,99294.38
2022-09-07T18:34:24.915Z,99291.59
2022-09-07T18:36:56.553Z,99294.50
2022-09-07T18:39:23.361Z,99299.91
2022-09-07T18:41:49.954Z,99288.25
2022-09-07T18:47:05.702Z,99297.00
2022-09-07T18:49:32.495Z,99297.59
2022-09-07T18:54:50.522Z,99306.81
2022-09-07T18:57:17.362Z,99306.13
2022-09-07T18:59:44.288Z,99304.34
2022-09-07T19:02:11.214Z,99303.47
2022-09-07T19:07:29.917Z,99301.16
2022-09-07T19:09:57.072Z,99279.91
2022-09-07T19:12:23.644Z,99286.06
2022-09-07T19:14:51.788Z,99290.94
2022-09-07T19:17:19.264Z,99285.22
2022-09-07T19:19:45.838Z,99284.53
2022-09-07T19:22:16.688Z,99291.06
2022-09-07T19:24:47.629Z,99287.38
2022-09-07T19:27:19.453Z,99286.69
2022-09-07T19:29:46.077Z,99282.25
2022-09-07T19:32:13.285Z,99286.88
2022-09-07T19:34:41.821Z,99283.91
2022-09-07T19:37:17.080Z,99278.47
2022-09-07T19:39:43.746Z,99281.56
2022-09-07T19:42:16.698Z,99278.75
2022-09-07T19:44:45.733Z,99277.34
2022-09-07T19:47:16.977Z,99274.19
2022-09-07T19:49:48.501Z,99275.88
2022-09-07T19:52:17.458Z,99275.31
2022-09-07T19:54:44.093Z,99282.28
2022-09-07T19:57:12.556Z,99273.31
2022-09-07T19:59:39.110Z,99272.19
2022-09-07T20:02:06.407Z,99257.44
2022-09-07T20:04:33.070Z,99256.38
2022-09-07T20:06:59.932Z,99257.53
2022-09-07T20:09:26.810Z,99250.53
2022-09-07T20:11:55.562Z,99256.69
2022-09-07T20:14:23.712Z,99246.72
2022-09-07T20:16:50.300Z,99243.75
2022-09-07T20:19:18.029Z,99241.06
2022-09-07T20:21:44.592Z,99244.16
2022-09-07T20:24:11.691Z,99233.81
2022-09-07T20:26:38.355Z,99230.28
2022-09-07T20:29:26.231Z,99231.22
2022-09-07T20:31:55.140Z,99237.94
2022-09-07T20:34:21.853Z,99234.22
2022-09-07T20:36:54.741Z,99232.78
2022-09-07T20:39:21.785Z,99224.44
2022-09-07T20:41:49.790Z,99227.44
2022-09-07T20:44:16.789Z,99217.84
2022-09-07T20:46:45.475Z,99209.22
2022-09-07T20:49:16.024Z,99210.16
2022-09-07T20:51:48.528Z,99205.78
2022-09-07T20:54:15.245Z,99206.44
2022-09-07T20:56:43.995Z,99201.03
2022-09-07T20:59:13.232Z,99211.50
2022-09-07T21:01:40.223Z,99208.94
2022-09-07T21:04:07.131Z,99207.41
2022-09-07T21:06:36.116Z,99208.56
2022-09-07T21:09:03.575Z,99215.69
2022-09-07T21:11:32.258Z,99201.25
2022-09-07T21:14:01.118Z,99208.13
2022-09-07T21:16:29.308Z,99204.34
2022-09-07T21:18:57.825Z,99205.72
2022-09-07T21:21:26.112Z,99198.66
2022-09-07T21:23:58.683Z,99201.59
2022-09-07T21:26:26.811Z,99202.31
2022-09-07T21:28:56.919Z,99203.25
2022-09-07T21:31:24.823Z,99193.84
2022-09-07T21:33:56.023Z,99190.81
2022-09-07T21:36:23.031Z,99191.97
2022-09-07T21:38:51.526Z,99186.78
2022-09-07T21:41:21.292Z,99206.50
2022-09-07T21:43:49.161Z,99197.66
2022-09-07T21:46:17.835Z,99190.81
2022-09-07T21:48:45.493Z,99194.00
2022-09-07T21:51:15.855Z,99192.59
2022-09-07T21:53:43.654Z,99190.25
2022-09-07T21:56:12.132Z,99187.06
2022-09-07T21:58:41.078Z,99179.19
2022-09-07T22:01:12.407Z,99174.03
2022-09-07T22:03:39.802Z,99173.13
2022-09-07T22:06:07.491Z,99181.28
2022-09-07T22:08:34.943Z,99173.72
2022-09-07T22:11:06.089Z,99178.50
2022-09-07T22:13:33.416Z,99178.03
2022-09-07T22:16:02.056Z,99174.94
2022-09-07T22:18:30.386Z,99177.16
2022-09-07T22:21:05.325Z,99177.81
2022-09-07T22:23:33.676Z,99173.44
2022-09-07T22:26:01.478Z,99169.47
2022-09-07T22:28:28.899Z,99166.16
2022-09-07T22:30:56.091Z,99171.16
2022-09-07T22:33:24.643Z,99171.38
2022-09-07T22:35:51.228Z,99168.78
2022-09-07T22:38:18.259Z,99176.22
2022-09-07T22:40:45.104Z,99180.72
2022-09-07T22:43:12.759Z,99177.75
2022-09-07T22:45:39.439Z,99174.41
2022-09-07T22:48:06.404Z,99172.22
2022-09-07T22:50:34.914Z,99171.50
2022-09-07T22:53:01.635Z,99173.50
2022-09-07T22:55:28.521Z,99174.03
2022-09-07T22:57:55.408Z,99161.91
2022-09-07T23:00:21.958Z,99159.13
2022-09-07T23:02:48.764Z,99154.94
2022-09-07T23:05:15.763Z,99153.69
2022-09-07T23:07:43.850Z,99150.66
2022-09-07T23:10:10.998Z,99148.22
2022-09-07T23:12:37.653Z,99155.56
2022-09-07T23:15:05.058Z,99157.47
2022-09-07T23:17:33.692Z,99151.75
2022-09-07T23:20:00.530Z,99139.88
2022-09-07T23:22:27.153Z,99145.72
2022-09-07T23:24:56.202Z,99137.78
2022-09-07T23:27:23.187Z,99136.94
2022-09-07T23:29:49.908Z,99129.50
2022-09-07T23:32:17.021Z,99123.84
2022-09-07T23:34:43.946Z,99109.22
2022-09-07T23:37:10.969Z,99110.84
2022-09-07T23:39:41.348Z,99104.47
2022-09-07T23:42:09.710Z,99106.88
2022-09-07T23:44:36.641Z,99096.09
2022-09-07T23:47:03.331Z,99099.78
2022-09-07T23:49:30.159Z,99084.53
2022-09-07T23:51:56.894Z,99084.34
2022-09-07T23:54:24.146Z,99082.25
2022-09-07T23:56:51.351Z,99082.38
2022-09-07T23:59:19.596Z,99073.97
